sensor_id;sensor_type;location;lat;lon;timestamp;P1;durP1;ratioP1;P2;durP2;ratioP2
37559;SDS011;23398;50.928;7.084;2022-12-10T00:01:28;16.17;;;9.97;;
37559;SDS011;23398;50.928;7.084;2022-12-10T00:03:55;14.87;;;9.53;;
37559;SDS011;23398;50.928;7.084;2022-12-10T00:06:22;15.60;;;9.63;;
37559;SDS011;23398;50.928;7.084;2022-12-10T00:08:50;16.97;;;10.60;;
37559;SDS011;23398;50.928;7.084;2022-12-10T00:11:17;15.47;;;9.60;;
37559;SDS011;23398;50.928;7.084;2022-12-10T00:13:44;17.30;;;10.10;;
37559;SDS011;23398;50.928;7.084;2022-12-10T00:16:11;15.07;;;9.87;;
37559;SDS011;23398;50.928;7.084;2022-12-10T00:18:39;15.43;;;9.80;;
37559;SDS011;23398;50.928;7.084;2022-12-10T00:21:06;14.40;;;8.97;;
37559;SDS011;23398;50.928;7.084;2022-12-10T00:23:34;17.47;;;11.00;;
37559;SDS011;23398;50.928;7.084;2022-12-10T00:26:04;18.20;;;11.23;;
37559;SDS011;23398;50.928;7.084;2022-12-10T00:28:31;16.13;;;10.20;;
37559;SDS011;23398;50.928;7.084;2022-12-10T00:31:01;16.70;;;10.37;;
37559;SDS011;23398;50.928;7.084;2022-12-10T00:33:35;14.20;;;9.30;;
37559;SDS011;23398;50.928;7.084;2022-12-10T00:36:04;16.20;;;10.57;;
37559;SDS011;23398;50.928;7.084;2022-12-10T00:38:35;16.83;;;10.93;;
37559;SDS011;23398;50.928;7.084;2022-12-10T00:41:02;17.97;;;10.70;;
37559;SDS011;23398;50.928;7.084;2022-12-10T00:43:28;17.17;;;10.77;;
37559;SDS011;23398;50.928;7.084;2022-12-10T00:45:53;18.13;;;11.23;;
37559;SDS011;23398;50.928;7.084;2022-12-10T00:48:20;14.63;;;10.10;;
37559;SDS011;23398;50.928;7.084;2022-12-10T00:53:22;15.73;;;10.33;;
37559;SDS011;23398;50.928;7.084;2022-12-10T00:55:48;15.73;;;10.57;;
37559;SDS011;23398;50.928;7.084;2022-12-10T00:58:13;16.53;;;10.57;;
37559;SDS011;23398;50.928;7.084;2022-12-10T01:00:39;15.97;;;9.83;;
37559;SDS011;23398;50.928;7.084;2022-12-10T01:03:05;14.93;;;10.00;;
37559;SDS011;23398;50.928;7.084;2022-12-10T01:05:30;15.27;;;9.27;;
37559;SDS011;23398;50.928;7.084;2022-12-10T01:07:55;15.30;;;9.83;;
37559;SDS011;23398;50.928;7.084;2022-12-10T01:10:21;14.70;;;9.37;;
37559;SDS011;23398;50.928;7.084;2022-12-10T01:12:47;13.50;;;9.07;;
37559;SDS011;23398;50.928;7.084;2022-12-10T01:15:13;15.43;;;9.10;;
37559;SDS011;23398;50.928;7.084;2022-12-10T01:17:38;14.93;;;9.57;;
37559;SDS011;23398;50.928;7.084;2022-12-10T01:20:04;12.90;;;8.90;;
37559;SDS011;23398;50.928;7.084;2022-12-10T01:22:30;15.27;;;9.13;;
37559;SDS011;23398;50.928;7.084;2022-12-10T01:24:56;13.87;;;9.30;;
37559;SDS011;23398;50.928;7.084;2022-12-10T01:27:21;15.80;;;9.67;;
37559;SDS011;23398;50.928;7.084;2022-12-10T01:29:47;14.70;;;9.33;;
37559;SDS011;23398;50.928;7.084;2022-12-10T01:32:12;13.50;;;8.90;;
37559;SDS011;23398;50.928;7.084;2022-12-10T01:34:38;16.10;;;9.53;;
37559;SDS011;23398;50.928;7.084;2022-12-10T01:37:04;15.27;;;9.47;;
37559;SDS011;23398;50.928;7.084;2022-12-10T01:39:29;15.90;;;9.23;;
37559;SDS011;23398;50.928;7.084;2022-12-10T01:41:56;17.63;;;10.33;;
37559;SDS011;23398;50.928;7.084;2022-12-10T01:46:52;19.27;;;10.33;;
37559;SDS011;23398;50.928;7.084;2022-12-10T01:49:21;16.63;;;9.20;;
37559;SDS011;23398;50.928;7.084;2022-12-10T01:51:57;13.53;;;8.50;;
37559;SDS011;23398;50.928;7.084;2022-12-10T01:56:53;11.87;;;7.93;;
37559;SDS011;23398;50.928;7.084;2022-12-10T01:59:32;11.83;;;7.57;;
37559;SDS011;23398;50.928;7.084;2022-12-10T02:04:36;15.87;;;9.07;;
37559;SDS011;23398;50.928;7.084;2022-12-10T02:09:47;12.97;;;7.73;;
37559;SDS011;23398;50.928;7.084;2022-12-10T02:12:32;15.33;;;8.73;;
37559;SDS011;23398;50.928;7.084;2022-12-10T02:15:16;14.17;;;8.27;;
37559;SDS011;23398;50.928;7.084;2022-12-10T02:17:52;12.73;;;8.10;;
37559;SDS011;23398;50.928;7.084;2022-12-10T02:20:37;13.67;;;7.97;;
37559;SDS011;23398;50.928;7.084;2022-12-10T02:23:11;14.07;;;8.33;;
37559;SDS011;23398;50.928;7.084;2022-12-10T02:25:51;15.30;;;9.20;;
37559;SDS011;23398;50.928;7.084;2022-12-10T02:31:14;13.97;;;8.93;;
37559;SDS011;23398;50.928;7.084;2022-12-10T02:33:44;17.10;;;9.57;;
37559;SDS011;23398;50.928;7.084;2022-12-10T02:36:14;14.10;;;8.97;;
37559;SDS011;23398;50.928;7.084;2022-12-10T02:38:41;15.07;;;9.63;;
37559;SDS011;23398;50.928;7.084;2022-12-10T02:41:18;16.23;;;9.83;;
37559;SDS011;23398;50.928;7.084;2022-12-10T02:43:49;16.10;;;9.67;;
37559;SDS011;23398;50.928;7.084;2022-12-10T02:46:18;15.30;;;9.20;;
37559;SDS011;23398;50.928;7.084;2022-12-10T02:48:45;14.50;;;8.70;;
37559;SDS011;23398;50.928;7.084;2022-12-10T02:51:12;15.90;;;9.37;;
37559;SDS011;23398;50.928;7.084;2022-12-10T02:53:44;15.30;;;8.90;;
37559;SDS011;23398;50.928;7.084;2022-12-10T02:56:16;18.10;;;10.10;;
37559;SDS011;23398;50.928;7.084;2022-12-10T02:59:07;15.00;;;8.93;;
37559;SDS011;23398;50.928;7.084;2022-12-10T03:01:56;16.63;;;9.13;;
37559;SDS011;23398;50.928;7.084;2022-12-10T03:07:33;15.77;;;9.00;;
37559;SDS011;23398;50.928;7.084;2022-12-10T03:10:03;15.47;;;9.23;;
37559;SDS011;23398;50.928;7.084;2022-12-10T03:12:40;14.63;;;8.93;;
37559;SDS011;23398;50.928;7.084;2022-12-10T03:15:11;15.93;;;9.30;;
37559;SDS011;23398;50.928;7.084;2022-12-10T03:17:39;16.53;;;8.93;;
37559;SDS011;23398;50.928;7.084;2022-12-10T03:20:08;15.13;;;9.20;;
37559;SDS011;23398;50.928;7.084;2022-12-10T03:22:36;16.00;;;10.17;;
37559;SDS011;23398;50.928;7.084;2022-12-10T03:25:04;15.47;;;9.37;;
37559;SDS011;23398;50.928;7.084;2022-12-10T03:27:31;17.33;;;10.00;;
37559;SDS011;23398;50.928;7.084;2022-12-10T03:29:57;18.20;;;9.87;;
37559;SDS011;23398;50.928;7.084;2022-12-10T03:32:25;15.20;;;9.50;;
37559;SDS011;23398;50.928;7.084;2022-12-10T03:34:52;15.33;;;9.77;;
37559;SDS011;23398;50.928;7.084;2022-12-10T03:37:21;16.17;;;10.17;;
37559;SDS011;23398;50.928;7.084;2022-12-10T03:39:47;14.30;;;9.50;;
37559;SDS011;23398;50.928;7.084;2022-12-10T03:42:14;18.00;;;10.73;;
37559;SDS011;23398;50.928;7.084;2022-12-10T03:44:40;16.03;;;10.30;;
37559;SDS011;23398;50.928;7.084;2022-12-10T03:47:06;14.77;;;9.97;;
37559;SDS011;23398;50.928;7.084;2022-12-10T03:49:35;16.23;;;10.20;;
37559;SDS011;23398;50.928;7.084;2022-12-10T03:52:00;14.30;;;9.33;;
37559;SDS011;23398;50.928;7.084;2022-12-10T03:54:26;15.27;;;9.93;;
37559;SDS011;23398;50.928;7.084;2022-12-10T03:56:51;16.27;;;10.47;;
37559;SDS011;23398;50.928;7.084;2022-12-10T03:59:17;16.27;;;10.23;;
37559;SDS011;23398;50.928;7.084;2022-12-10T04:01:43;15.80;;;10.03;;
37559;SDS011;23398;50.928;7.084;2022-12-10T04:04:10;15.20;;;10.20;;
37559;SDS011;23398;50.928;7.084;2022-12-10T04:06:39;16.77;;;10.47;;
37559;SDS011;23398;50.928;7.084;2022-12-10T04:09:06;17.60;;;9.87;;
37559;SDS011;23398;50.928;7.084;2022-12-10T04:11:37;18.03;;;11.20;;
37559;SDS011;23398;50.928;7.084;2022-12-10T04:14:03;15.57;;;10.20;;
37559;SDS011;23398;50.928;7.084;2022-12-10T04:16:47;17.87;;;10.67;;
37559;SDS011;23398;50.928;7.084;2022-12-10T04:19:14;18.63;;;11.27;;
37559;SDS011;23398;50.928;7.084;2022-12-10T04:21:41;21.37;;;12.27;;
37559;SDS011;23398;50.928;7.084;2022-12-10T04:24:27;19.30;;;10.90;;
37559;SDS011;23398;50.928;7.084;2022-12-10T04:27:20;19.27;;;11.17;;
37559;SDS011;23398;50.928;7.084;2022-12-10T04:29:54;19.43;;;11.43;;
37559;SDS011;23398;50.928;7.084;2022-12-10T04:32:21;18.40;;;11.03;;
37559;SDS011;23398;50.928;7.084;2022-12-10T04:34:47;18.27;;;11.00;;
37559;SDS011;23398;50.928;7.084;2022-12-10T04:37:13;17.90;;;11.87;;
37559;SDS011;23398;50.928;7.084;2022-12-10T04:39:39;20.17;;;12.03;;
37559;SDS011;23398;50.928;7.084;2022-12-10T04:42:05;18.30;;;11.73;;
37559;SDS011;23398;50.928;7.084;2022-12-10T04:44:31;19.70;;;11.33;;
37559;SDS011;23398;50.928;7.084;2022-12-10T04:46:57;21.07;;;11.30;;
37559;SDS011;23398;50.928;7.084;2022-12-10T04:49:23;20.33;;;12.03;;
37559;SDS011;23398;50.928;7.084;2022-12-10T04:51:49;20.30;;;12.30;;
37559;SDS011;23398;50.928;7.084;2022-12-10T04:54:15;22.23;;;12.63;;
37559;SDS011;23398;50.928;7.084;2022-12-10T04:56:41;21.50;;;12.00;;
37559;SDS011;23398;50.928;7.084;2022-12-10T04:59:07;21.50;;;11.60;;
37559;SDS011;23398;50.928;7.084;2022-12-10T05:01:34;21.37;;;11.70;;
37559;SDS011;23398;50.928;7.084;2022-12-10T05:04:00;21.97;;;12.50;;
37559;SDS011;23398;50.928;7.084;2022-12-10T05:06:27;23.30;;;13.10;;
37559;SDS011;23398;50.928;7.084;2022-12-10T05:08:53;22.17;;;12.53;;
37559;SDS011;23398;50.928;7.084;2022-12-10T05:11:19;21.63;;;12.70;;
37559;SDS011;23398;50.928;7.084;2022-12-10T05:13:47;23.23;;;12.93;;
37559;SDS011;23398;50.928;7.084;2022-12-10T05:16:14;22.57;;;12.50;;
37559;SDS011;23398;50.928;7.084;2022-12-10T05:18:41;23.60;;;13.53;;
37559;SDS011;23398;50.928;7.084;2022-12-10T05:21:09;19.93;;;11.77;;
37559;SDS011;23398;50.928;7.084;2022-12-10T05:23:37;22.00;;;12.47;;
37559;SDS011;23398;50.928;7.084;2022-12-10T05:26:09;19.67;;;11.93;;
37559;SDS011;23398;50.928;7.084;2022-12-10T05:28:39;22.60;;;12.33;;
37559;SDS011;23398;50.928;7.084;2022-12-10T05:31:13;23.57;;;13.20;;
37559;SDS011;23398;50.928;7.084;2022-12-10T05:33:46;22.63;;;12.70;;
37559;SDS011;23398;50.928;7.084;2022-12-10T05:36:13;21.73;;;12.67;;
37559;SDS011;23398;50.928;7.084;2022-12-10T05:38:39;19.40;;;11.73;;
37559;SDS011;23398;50.928;7.084;2022-12-10T05:41:05;21.27;;;12.07;;
37559;SDS011;23398;50.928;7.084;2022-12-10T05:43:33;20.57;;;12.30;;
37559;SDS011;23398;50.928;7.084;2022-12-10T05:46:00;20.77;;;12.17;;
37559;SDS011;23398;50.928;7.084;2022-12-10T05:48:29;20.90;;;12.03;;
37559;SDS011;23398;50.928;7.084;2022-12-10T05:50:55;24.37;;;12.80;;
37559;SDS011;23398;50.928;7.084;2022-12-10T05:53:22;21.50;;;12.47;;
37559;SDS011;23398;50.928;7.084;2022-12-10T05:55:48;20.17;;;12.10;;
37559;SDS011;23398;50.928;7.084;2022-12-10T05:58:14;23.40;;;12.97;;
37559;SDS011;23398;50.928;7.084;2022-12-10T06:00:40;19.20;;;11.77;;
37559;SDS011;23398;50.928;7.084;2022-12-10T06:03:06;21.30;;;12.13;;
37559;SDS011;23398;50.928;7.084;2022-12-10T06:05:38;23.10;;;13.13;;
37559;SDS011;23398;50.928;7.084;2022-12-10T06:08:05;23.77;;;13.20;;
37559;SDS011;23398;50.928;7.084;2022-12-10T06:10:33;21.40;;;12.60;;
37559;SDS011;23398;50.928;7.084;2022-12-10T06:12:59;20.50;;;11.83;;
37559;SDS011;23398;50.928;7.084;2022-12-10T06:15:25;19.73;;;11.67;;
37559;SDS011;23398;50.928;7.084;2022-12-10T06:17:50;19.23;;;11.20;;
37559;SDS011;23398;50.928;7.084;2022-12-10T06:20:16;18.90;;;11.47;;
37559;SDS011;23398;50.928;7.084;2022-12-10T06:22:42;18.53;;;11.53;;
37559;SDS011;23398;50.928;7.084;2022-12-10T06:25:07;21.40;;;12.20;;
37559;SDS011;23398;50.928;7.084;2022-12-10T06:27:33;20.83;;;12.17;;
37559;SDS011;23398;50.928;7.084;2022-12-10T06:29:58;18.23;;;10.83;;
37559;SDS011;23398;50.928;7.084;2022-12-10T06:32:24;17.77;;;11.57;;
37559;SDS011;23398;50.928;7.084;2022-12-10T06:34:50;19.10;;;11.40;;
37559;SDS011;23398;50.928;7.084;2022-12-10T06:37:16;18.33;;;11.33;;
37559;SDS011;23398;50.928;7.084;2022-12-10T06:39:41;19.73;;;11.73;;
37559;SDS011;23398;50.928;7.084;2022-12-10T06:42:07;22.17;;;11.67;;
37559;SDS011;23398;50.928;7.084;2022-12-10T06:44:33;18.13;;;11.83;;
37559;SDS011;23398;50.928;7.084;2022-12-10T06:46:59;19.00;;;12.00;;
37559;SDS011;23398;50.928;7.084;2022-12-10T06:49:24;20.53;;;11.90;;
37559;SDS011;23398;50.928;7.084;2022-12-10T06:51:50;19.77;;;12.13;;
37559;SDS011;23398;50.928;7.084;2022-12-10T06:54:15;17.03;;;11.10;;
37559;SDS011;23398;50.928;7.084;2022-12-10T06:56:41;18.07;;;11.27;;
37559;SDS011;23398;50.928;7.084;2022-12-10T06:59:07;22.07;;;12.00;;
37559;SDS011;23398;50.928;7.084;2022-12-10T07:01:32;19.20;;;11.47;;
37559;SDS011;23398;50.928;7.084;2022-12-10T07:03:58;19.20;;;11.83;;
37559;SDS011;23398;50.928;7.084;2022-12-10T07:06:24;20.43;;;11.90;;
37559;SDS011;23398;50.928;7.084;2022-12-10T07:08:51;19.30;;;11.47;;
37559;SDS011;23398;50.928;7.084;2022-12-10T07:11:18;19.37;;;11.27;;
37559;SDS011;23398;50.928;7.084;2022-12-10T07:13:46;19.80;;;11.30;;
37559;SDS011;23398;50.928;7.084;2022-12-10T07:16:16;20.60;;;12.07;;
37559;SDS011;23398;50.928;7.084;2022-12-10T07:18:44;19.87;;;11.50;;
37559;SDS011;23398;50.928;7.084;2022-12-10T07:21:17;19.87;;;11.60;;
37559;SDS011;23398;50.928;7.084;2022-12-10T07:23:50;18.57;;;11.37;;
37559;SDS011;23398;50.928;7.084;2022-12-10T07:26:22;19.33;;;11.57;;
37559;SDS011;23398;50.928;7.084;2022-12-10T07:28:48;19.33;;;11.03;;
37559;SDS011;23398;50.928;7.084;2022-12-10T07:31:14;18.43;;;11.20;;
37559;SDS011;23398;50.928;7.084;2022-12-10T07:33:39;20.67;;;10.90;;
37559;SDS011;23398;50.928;7.084;2022-12-10T07:36:05;19.27;;;11.27;;
37559;SDS011;23398;50.928;7.084;2022-12-10T07:38:33;18.27;;;10.77;;
37559;SDS011;23398;50.928;7.084;2022-12-10T07:41:02;19.73;;;11.43;;
37559;SDS011;23398;50.928;7.084;2022-12-10T07:43:28;20.77;;;11.87;;
37559;SDS011;23398;50.928;7.084;2022-12-10T07:45:53;22.77;;;12.33;;
37559;SDS011;23398;50.928;7.084;2022-12-10T07:48:19;19.17;;;11.67;;
37559;SDS011;23398;50.928;7.084;2022-12-10T07:50:45;18.27;;;11.03;;
37559;SDS011;23398;50.928;7.084;2022-12-10T07:53:10;21.03;;;12.37;;
37559;SDS011;23398;50.928;7.084;2022-12-10T07:55:36;19.33;;;11.43;;
37559;SDS011;23398;50.928;7.084;2022-12-10T07:58:02;19.77;;;11.73;;
37559;SDS011;23398;50.928;7.084;2022-12-10T08:00:28;20.20;;;11.67;;
37559;SDS011;23398;50.928;7.084;2022-12-10T08:02:53;19.17;;;11.73;;
37559;SDS011;23398;50.928;7.084;2022-12-10T08:05:19;19.60;;;11.50;;
37559;SDS011;23398;50.928;7.084;2022-12-10T08:07:45;20.57;;;11.63;;
37559;SDS011;23398;50.928;7.084;2022-12-10T08:10:10;20.30;;;12.17;;
37559;SDS011;23398;50.928;7.084;2022-12-10T08:12:36;18.37;;;11.37;;
37559;SDS011;23398;50.928;7.084;2022-12-10T08:15:01;23.77;;;12.70;;
37559;SDS011;23398;50.928;7.084;2022-12-10T08:17:27;18.60;;;11.37;;
37559;SDS011;23398;50.928;7.084;2022-12-10T08:19:53;20.03;;;12.10;;
37559;SDS011;23398;50.928;7.084;2022-12-10T08:22:19;20.80;;;12.23;;
37559;SDS011;23398;50.928;7.084;2022-12-10T08:24:45;20.33;;;12.87;;
37559;SDS011;23398;50.928;7.084;2022-12-10T08:27:11;20.63;;;12.47;;
37559;SDS011;23398;50.928;7.084;2022-12-10T08:29:38;20.00;;;11.97;;
37559;SDS011;23398;50.928;7.084;2022-12-10T08:32:03;20.30;;;12.00;;
37559;SDS011;23398;50.928;7.084;2022-12-10T08:34:28;17.87;;;11.73;;
37559;SDS011;23398;50.928;7.084;2022-12-10T08:36:54;20.07;;;12.10;;
37559;SDS011;23398;50.928;7.084;2022-12-10T08:39:20;21.27;;;13.20;;
37559;SDS011;23398;50.928;7.084;2022-12-10T08:41:45;21.23;;;12.37;;
37559;SDS011;23398;50.928;7.084;2022-12-10T08:44:11;19.00;;;12.17;;
37559;SDS011;23398;50.928;7.084;2022-12-10T08:46:38;18.53;;;11.60;;
37559;SDS011;23398;50.928;7.084;2022-12-10T08:49:04;20.47;;;12.47;;
37559;SDS011;23398;50.928;7.084;2022-12-10T08:51:30;19.80;;;11.87;;
37559;SDS011;23398;50.928;7.084;2022-12-10T08:53:55;20.87;;;12.77;;
37559;SDS011;23398;50.928;7.084;2022-12-10T08:56:21;19.80;;;12.50;;
37559;SDS011;23398;50.928;7.084;2022-12-10T08:58:47;20.07;;;12.57;;
37559;SDS011;23398;50.928;7.084;2022-12-10T09:01:14;19.73;;;12.10;;
37559;SDS011;23398;50.928;7.084;2022-12-10T09:03:41;20.63;;;11.87;;
37559;SDS011;23398;50.928;7.084;2022-12-10T09:06:08;20.33;;;11.73;;
37559;SDS011;23398;50.928;7.084;2022-12-10T09:08:35;18.67;;;11.67;;
37559;SDS011;23398;50.928;7.084;2022-12-10T09:11:08;19.00;;;11.73;;
37559;SDS011;23398;50.928;7.084;2022-12-10T09:13:40;18.57;;;11.90;;
37559;SDS011;23398;50.928;7.084;2022-12-10T09:16:06;21.20;;;13.27;;
37559;SDS011;23398;50.928;7.084;2022-12-10T09:18:32;19.00;;;12.43;;
37559;SDS011;23398;50.928;7.084;2022-12-10T09:20:58;18.47;;;12.33;;
37559;SDS011;23398;50.928;7.084;2022-12-10T09:23:23;18.70;;;12.10;;
37559;SDS011;23398;50.928;7.084;2022-12-10T09:25:49;21.20;;;13.13;;
37559;SDS011;23398;50.928;7.084;2022-12-10T09:28:14;19.73;;;12.47;;
37559;SDS011;23398;50.928;7.084;2022-12-10T09:30:40;20.37;;;13.10;;
37559;SDS011;23398;50.928;7.084;2022-12-10T09:33:05;20.60;;;13.13;;
37559;SDS011;23398;50.928;7.084;2022-12-10T09:35:31;18.33;;;12.27;;
37559;SDS011;23398;50.928;7.084;2022-12-10T09:37:57;20.67;;;12.60;;
37559;SDS011;23398;50.928;7.084;2022-12-10T09:40:26;20.50;;;12.60;;
37559;SDS011;23398;50.928;7.084;2022-12-10T09:43:37;18.97;;;12.43;;
37559;SDS011;23398;50.928;7.084;2022-12-10T09:51:57;18.27;;;12.07;;
37559;SDS011;23398;50.928;7.084;2022-12-10T09:56:51;23.07;;;13.47;;
37559;SDS011;23398;50.928;7.084;2022-12-10T09:59:32;23.07;;;13.57;;
37559;SDS011;23398;50.928;7.084;2022-12-10T10:04:46;20.30;;;13.10;;
37559;SDS011;23398;50.928;7.084;2022-12-10T10:07:20;21.13;;;13.23;;
37559;SDS011;23398;50.928;7.084;2022-12-10T10:09:49;21.30;;;13.30;;
37559;SDS011;23398;50.928;7.084;2022-12-10T10:12:18;20.60;;;13.17;;
37559;SDS011;23398;50.928;7.084;2022-12-10T10:14:43;19.25;;;13.00;;
37559;SDS011;23398;50.928;7.084;2022-12-10T10:17:11;19.97;;;13.10;;
37559;SDS011;23398;50.928;7.084;2022-12-10T10:19:47;19.77;;;13.20;;
37559;SDS011;23398;50.928;7.084;2022-12-10T10:22:14;21.30;;;13.43;;
37559;SDS011;23398;50.928;7.084;2022-12-10T10:24:41;21.20;;;13.55;;
37559;SDS011;23398;50.928;7.084;2022-12-10T10:29:43;21.03;;;13.20;;
37559;SDS011;23398;50.928;7.084;2022-12-10T10:32:15;20.27;;;13.70;;
37559;SDS011;23398;50.928;7.084;2022-12-10T10:34:41;20.97;;;14.00;;
37559;SDS011;23398;50.928;7.084;2022-12-10T10:37:13;21.52;;;13.98;;
37559;SDS011;23398;50.928;7.084;2022-12-10T10:39:58;20.80;;;13.90;;
37559;SDS011;23398;50.928;7.084;2022-12-10T10:42:45;22.13;;;14.20;;
37559;SDS011;23398;50.928;7.084;2022-12-10T10:48:09;22.93;;;14.03;;
37559;SDS011;23398;50.928;7.084;2022-12-10T10:50:41;20.13;;;13.38;;
37559;SDS011;23398;50.928;7.084;2022-12-10T10:53:21;20.10;;;13.73;;
37559;SDS011;23398;50.928;7.084;2022-12-10T10:55:48;22.83;;;14.00;;
37559;SDS011;23398;50.928;7.084;2022-12-10T10:58:18;20.67;;;13.30;;
37559;SDS011;23398;50.928;7.084;2022-12-10T11:03:44;19.83;;;13.40;;
37559;SDS011;23398;50.928;7.084;2022-12-10T11:06:12;19.63;;;13.90;;
37559;SDS011;23398;50.928;7.084;2022-12-10T11:08:38;20.70;;;13.00;;
37559;SDS011;23398;50.928;7.084;2022-12-10T11:11:12;24.30;;;14.97;;
37559;SDS011;23398;50.928;7.084;2022-12-10T11:13:43;25.45;;;15.30;;
37559;SDS011;23398;50.928;7.084;2022-12-10T11:18:54;19.97;;;13.23;;
37559;SDS011;23398;50.928;7.084;2022-12-10T11:21:28;19.80;;;13.90;;
37559;SDS011;23398;50.928;7.084;2022-12-10T11:23:56;23.40;;;14.50;;
37559;SDS011;23398;50.928;7.084;2022-12-10T11:29:42;22.60;;;14.47;;
37559;SDS011;23398;50.928;7.084;2022-12-10T11:35:10;21.00;;;13.43;;
37559;SDS011;23398;50.928;7.084;2022-12-10T11:40:40;21.92;;;14.07;;
37559;SDS011;23398;50.928;7.084;2022-12-10T11:49:21;21.70;;;14.23;;
37559;SDS011;23398;50.928;7.084;2022-12-10T11:52:18;29.13;;;17.23;;
37559;SDS011;23398;50.928;7.084;2022-12-10T11:57:54;32.83;;;19.60;;
37559;SDS011;23398;50.928;7.084;2022-12-10T12:00:30;32.60;;;19.50;;
37559;SDS011;23398;50.928;7.084;2022-12-10T12:05:59;31.17;;;18.40;;
37559;SDS011;23398;50.928;7.084;2022-12-10T12:08:50;33.70;;;20.23;;
37559;SDS011;23398;50.928;7.084;2022-12-10T12:14:22;24.20;;;15.03;;
37559;SDS011;23398;50.928;7.084;2022-12-10T12:17:13;20.43;;;14.53;;
37559;SDS011;23398;50.928;7.084;2022-12-10T12:19:44;22.87;;;15.37;;
37559;SDS011;23398;50.928;7.084;2022-12-10T12:22:35;22.45;;;14.75;;
37559;SDS011;23398;50.928;7.084;2022-12-10T12:30:38;22.50;;;14.57;;
37559;SDS011;23398;50.928;7.084;2022-12-10T12:35:55;26.60;;;16.13;;
37559;SDS011;23398;50.928;7.084;2022-12-10T12:41:31;25.95;;;16.35;;
37559;SDS011;23398;50.928;7.084;2022-12-10T12:44:30;24.07;;;14.67;;
37559;SDS011;23398;50.928;7.084;2022-12-10T12:46:58;24.07;;;15.33;;
37559;SDS011;23398;50.928;7.084;2022-12-10T12:49:36;26.13;;;16.30;;
37559;SDS011;23398;50.928;7.084;2022-12-10T12:54:59;27.63;;;16.90;;
37559;SDS011;23398;50.928;7.084;2022-12-10T12:57:33;26.87;;;16.50;;
37559;SDS011;23398;50.928;7.084;2022-12-10T13:00:15;25.87;;;16.63;;
37559;SDS011;23398;50.928;7.084;2022-12-10T13:06:16;27.50;;;16.53;;
37559;SDS011;23398;50.928;7.084;2022-12-10T13:08:48;26.05;;;16.20;;
37559;SDS011;23398;50.928;7.084;2022-12-10T13:11:35;23.52;;;15.98;;
37559;SDS011;23398;50.928;7.084;2022-12-10T13:14:04;26.43;;;15.97;;
37559;SDS011;23398;50.928;7.084;2022-12-10T13:21:57;25.30;;;16.47;;
37559;SDS011;23398;50.928;7.084;2022-12-10T13:32:19;24.83;;;16.43;;
37559;SDS011;23398;50.928;7.084;2022-12-10T13:37:33;23.02;;;15.85;;
37559;SDS011;23398;50.928;7.084;2022-12-10T13:51:06;26.90;;;15.73;;
37559;SDS011;23398;50.928;7.084;2022-12-10T13:53:48;27.43;;;16.10;;
37559;SDS011;23398;50.928;7.084;2022-12-10T13:56:30;26.57;;;15.60;;
37559;SDS011;23398;50.928;7.084;2022-12-10T14:05:01;27.83;;;17.47;;
37559;SDS011;23398;50.928;7.084;2022-12-10T14:07:32;26.33;;;16.30;;
37559;SDS011;23398;50.928;7.084;2022-12-10T14:09:58;28.67;;;17.23;;
37559;SDS011;23398;50.928;7.084;2022-12-10T14:12:31;27.93;;;16.60;;
37559;SDS011;23398;50.928;7.084;2022-12-10T14:15:02;26.80;;;16.40;;
37559;SDS011;23398;50.928;7.084;2022-12-10T14:18:11;28.33;;;16.93;;
37559;SDS011;23398;50.928;7.084;2022-12-10T14:20:37;25.60;;;15.63;;
37559;SDS011;23398;50.928;7.084;2022-12-10T14:23:20;28.10;;;16.83;;
37559;SDS011;23398;50.928;7.084;2022-12-10T14:26:03;24.60;;;14.67;;
37559;SDS011;23398;50.928;7.084;2022-12-10T14:28:41;27.17;;;15.23;;
37559;SDS011;23398;50.928;7.084;2022-12-10T14:31:13;27.20;;;16.10;;
37559;SDS011;23398;50.928;7.084;2022-12-10T14:33:44;28.63;;;17.23;;
37559;SDS011;23398;50.928;7.084;2022-12-10T14:36:30;28.37;;;17.87;;
37559;SDS011;23398;50.928;7.084;2022-12-10T14:38:58;32.37;;;17.30;;
37559;SDS011;23398;50.928;7.084;2022-12-10T14:41:25;27.17;;;16.97;;
37559;SDS011;23398;50.928;7.084;2022-12-10T14:43:54;28.40;;;17.93;;
37559;SDS011;23398;50.928;7.084;2022-12-10T14:46:23;30.40;;;18.07;;
37559;SDS011;23398;50.928;7.084;2022-12-10T14:48:53;31.63;;;18.50;;
37559;SDS011;23398;50.928;7.084;2022-12-10T14:51:21;31.07;;;18.83;;
37559;SDS011;23398;50.928;7.084;2022-12-10T14:53:49;32.20;;;19.17;;
37559;SDS011;23398;50.928;7.084;2022-12-10T14:56:20;33.97;;;19.53;;
37559;SDS011;23398;50.928;7.084;2022-12-10T14:59:18;29.67;;;17.50;;
37559;SDS011;23398;50.928;7.084;2022-12-10T15:01:49;27.53;;;17.40;;
37559;SDS011;23398;50.928;7.084;2022-12-10T15:04:21;31.93;;;18.20;;
37559;SDS011;23398;50.928;7.084;2022-12-10T15:06:49;31.77;;;18.27;;
37559;SDS011;23398;50.928;7.084;2022-12-10T15:09:18;29.23;;;18.07;;
37559;SDS011;23398;50.928;7.084;2022-12-10T15:11:45;29.90;;;17.93;;
37559;SDS011;23398;50.928;7.084;2022-12-10T15:14:17;29.23;;;17.53;;
37559;SDS011;23398;50.928;7.084;2022-12-10T15:16:46;31.93;;;17.87;;
37559;SDS011;23398;50.928;7.084;2022-12-10T15:19:17;30.23;;;17.60;;
37559;SDS011;23398;50.928;7.084;2022-12-10T15:21:57;28.20;;;16.93;;
37559;SDS011;23398;50.928;7.084;2022-12-10T15:24:26;30.13;;;17.67;;
37559;SDS011;23398;50.928;7.084;2022-12-10T15:27:01;26.63;;;15.93;;
37559;SDS011;23398;50.928;7.084;2022-12-10T15:29:39;26.40;;;16.37;;
37559;SDS011;23398;50.928;7.084;2022-12-10T15:32:05;25.50;;;15.93;;
37559;SDS011;23398;50.928;7.084;2022-12-10T15:34:40;26.17;;;16.03;;
37559;SDS011;23398;50.928;7.084;2022-12-10T15:37:17;27.87;;;16.33;;
37559;SDS011;23398;50.928;7.084;2022-12-10T15:40:04;25.90;;;15.90;;
37559;SDS011;23398;50.928;7.084;2022-12-10T15:42:37;26.13;;;15.83;;
37559;SDS011;23398;50.928;7.084;2022-12-10T15:45:18;27.90;;;16.63;;
37559;SDS011;23398;50.928;7.084;2022-12-10T15:47:44;26.13;;;15.50;;
37559;SDS011;23398;50.928;7.084;2022-12-10T15:50:10;58.47;;;26.03;;
37559;SDS011;23398;50.928;7.084;2022-12-10T15:52:35;309.67;;;115.30;;
37559;SDS011;23398;50.928;7.084;2022-12-10T15:55:01;125.73;;;54.87;;
37559;SDS011;23398;50.928;7.084;2022-12-10T15:57:37;76.17;;;36.47;;
37559;SDS011;23398;50.928;7.084;2022-12-10T16:00:13;48.30;;;26.90;;
37559;SDS011;23398;50.928;7.084;2022-12-10T16:05:18;33.30;;;19.33;;
37559;SDS011;23398;50.928;7.084;2022-12-10T16:07:51;34.27;;;19.60;;
37559;SDS011;23398;50.928;7.084;2022-12-10T16:10:19;26.17;;;17.20;;
37559;SDS011;23398;50.928;7.084;2022-12-10T16:12:47;27.20;;;15.97;;
37559;SDS011;23398;50.928;7.084;2022-12-10T16:15:20;23.83;;;15.87;;
37559;SDS011;23398;50.928;7.084;2022-12-10T16:17:49;25.40;;;15.93;;
37559;SDS011;23398;50.928;7.084;2022-12-10T16:20:21;26.13;;;16.50;;
37559;SDS011;23398;50.928;7.084;2022-12-10T16:22:52;26.30;;;16.03;;
37559;SDS011;23398;50.928;7.084;2022-12-10T16:25:18;24.37;;;15.30;;
37559;SDS011;23398;50.928;7.084;2022-12-10T16:27:44;24.00;;;15.93;;
37559;SDS011;23398;50.928;7.084;2022-12-10T16:30:13;23.60;;;15.77;;
37559;SDS011;23398;50.928;7.084;2022-12-10T16:32:42;24.83;;;15.73;;
37559;SDS011;23398;50.928;7.084;2022-12-10T16:35:07;24.53;;;15.80;;
37559;SDS011;23398;50.928;7.084;2022-12-10T16:37:33;23.07;;;15.57;;